createdAt,value
2023-01-13T00:01:22.600Z,4.05
2023-01-13T00:04:26.333Z,4.60
2023-01-13T00:07:30.537Z,5.00
2023-01-13T00:10:35.630Z,6.82
2023-01-13T00:13:39.800Z,6.40
2023-01-13T00:16:43.464Z,4.90
2023-01-13T00:19:47.538Z,5.75
2023-01-13T00:22:51.130Z,9.82
2023-01-13T00:25:58.397Z,7.93
2023-01-13T00:29:02.402Z,4.57
2023-01-13T00:32:09.551Z,5.47
2023-01-13T00:35:12.506Z,3.13
2023-01-13T00:38:16.598Z,5.38
2023-01-13T00:41:23.337Z,5.22
2023-01-13T00:44:26.354Z,6.47
2023-01-13T00:47:29.409Z,2.95
2023-01-13T00:50:32.795Z,4.45
2023-01-13T00:53:39.533Z,2.60
2023-01-13T00:56:43.652Z,4.20
2023-01-13T00:59:49.881Z,4.47
2023-01-13T01:02:53.250Z,4.70
2023-01-13T01:05:57.174Z,4.60
2023-01-13T01:09:00.117Z,5.15
2023-01-13T01:12:03.577Z,2.58
2023-01-13T01:15:10.474Z,3.25
2023-01-13T01:21:19.147Z,4.20
2023-01-13T01:24:22.308Z,4.72
2023-01-13T01:27:25.265Z,5.40
2023-01-13T01:30:28.883Z,4.75
2023-01-13T01:33:32.542Z,4.22
2023-01-13T01:36:37.142Z,3.97
2023-01-13T01:39:40.835Z,3.97
2023-01-13T01:43:02.783Z,4.30
2023-01-13T01:46:07.033Z,4.00
2023-01-13T01:49:10.545Z,4.45
2023-01-13T01:52:27.536Z,3.63
2023-01-13T01:55:34.096Z,4.70
2023-01-13T01:58:48.822Z,4.15
2023-01-13T02:01:52.880Z,5.07
2023-01-13T02:04:57.496Z,5.85
2023-01-13T02:08:02.652Z,7.53
2023-01-13T02:11:06.408Z,2.90
2023-01-13T02:14:10.894Z,4.25
2023-01-13T02:17:40.246Z,2.97
2023-01-13T02:20:59.056Z,3.10
2023-01-13T02:24:45.097Z,4.47
2023-01-13T02:28:15.187Z,4.60
2023-01-13T02:31:36.954Z,3.67
2023-01-13T02:34:50.381Z,3.30
2023-01-13T02:37:55.238Z,5.03
2023-01-13T02:41:24.233Z,4.93
2023-01-13T02:44:34.798Z,5.68
2023-01-13T02:47:43.451Z,3.60
2023-01-13T02:50:58.252Z,5.57
2023-01-13T02:54:16.810Z,4.93
2023-01-13T02:57:22.504Z,2.70
2023-01-13T03:00:26.705Z,4.35
2023-01-13T03:03:29.644Z,3.70
2023-01-13T03:06:57.744Z,4.97
2023-01-13T03:10:23.733Z,2.28
2023-01-13T03:13:51.978Z,5.30
2023-01-13T03:17:13.901Z,2.20
2023-01-13T03:20:23.215Z,3.13
2023-01-13T03:23:43.036Z,2.42
2023-01-13T03:26:50.047Z,2.72
2023-01-13T03:30:01.515Z,2.27
2023-01-13T03:33:21.211Z,2.85
2023-01-13T03:36:27.133Z,2.80
2023-01-13T03:39:35.474Z,3.15
2023-01-13T03:42:42.278Z,3.35
2023-01-13T03:45:50.930Z,4.28
2023-01-13T03:48:58.122Z,2.70
2023-01-13T03:52:05.215Z,2.10
2023-01-13T03:55:16.872Z,5.90
2023-01-13T03:58:25.234Z,2.35
2023-01-13T04:01:36.949Z,2.60
2023-01-13T04:04:50.048Z,1.92
2023-01-13T04:08:21.669Z,2.53
2023-01-13T04:11:39.521Z,2.30
2023-01-13T04:14:43.804Z,1.85
2023-01-13T04:17:47.575Z,2.42
2023-01-13T04:20:52.650Z,2.03
2023-01-13T04:23:56.326Z,3.05
2023-01-13T04:26:59.790Z,2.20
2023-01-13T04:30:03.606Z,3.28
2023-01-13T04:33:06.941Z,2.90
2023-01-13T04:36:10.186Z,2.00
2023-01-13T04:39:13.935Z,3.38
2023-01-13T04:42:17.694Z,2.90
2023-01-13T04:45:21.368Z,1.98
2023-01-13T04:48:25.091Z,2.60
2023-01-13T04:51:28.734Z,2.08
2023-01-13T04:54:32.105Z,3.17
2023-01-13T04:57:38.298Z,3.55
2023-01-13T05:00:41.711Z,2.60
2023-01-13T05:03:44.884Z,2.90
2023-01-13T05:06:47.868Z,3.83
2023-01-13T05:09:50.841Z,4.03
2023-01-13T05:13:12.166Z,3.40
2023-01-13T05:16:33.520Z,2.63
2023-01-13T05:19:39.833Z,3.88
2023-01-13T05:23:02.465Z,2.20
2023-01-13T05:26:06.914Z,2.78
2023-01-13T05:29:10.858Z,6.25
2023-01-13T05:32:14.584Z,3.38
2023-01-13T05:35:18.776Z,3.70
2023-01-13T05:38:23.190Z,3.72
2023-01-13T05:41:59.000Z,3.67
2023-01-13T05:45:02.702Z,2.38
2023-01-13T05:48:06.627Z,2.45
2023-01-13T05:51:12.724Z,4.65
2023-01-13T05:54:16.532Z,3.13
2023-01-13T05:57:19.604Z,2.47
2023-01-13T06:00:23.353Z,3.17
2023-01-13T06:03:26.781Z,3.45
2023-01-13T06:06:29.731Z,2.22
2023-01-13T06:09:33.563Z,3.28
2023-01-13T06:12:37.732Z,3.67
2023-01-13T06:15:41.090Z,3.50
2023-01-13T06:18:44.840Z,2.20
2023-01-13T06:21:49.202Z,3.35
2023-01-13T06:24:55.022Z,3.90
2023-01-13T06:28:00.252Z,2.80
2023-01-13T06:31:08.688Z,2.88
2023-01-13T06:34:15.183Z,2.30
2023-01-13T06:37:22.743Z,2.75
2023-01-13T06:40:27.304Z,2.50
2023-01-13T06:43:31.557Z,2.80
2023-01-13T06:46:36.632Z,1.70
2023-01-13T06:49:41.184Z,2.08
2023-01-13T06:52:44.370Z,2.75
2023-01-13T06:55:48.891Z,2.22
2023-01-13T06:58:52.637Z,2.80
2023-01-13T07:01:56.186Z,3.40
2023-01-13T07:04:59.965Z,3.78
2023-01-13T07:08:03.297Z,2.35
2023-01-13T07:11:07.582Z,3.53
2023-01-13T07:14:29.092Z,2.78
2023-01-13T07:17:32.010Z,3.33
2023-01-13T07:20:35.033Z,2.25
2023-01-13T07:23:40.738Z,3.38
2023-01-13T07:26:45.289Z,2.23
2023-01-13T07:29:48.267Z,3.88
2023-01-13T07:32:51.925Z,3.92
2023-01-13T07:36:00.176Z,4.30
2023-01-13T07:39:04.754Z,3.33
2023-01-13T07:42:27.725Z,3.45
2023-01-13T07:45:31.095Z,2.80
2023-01-13T07:48:35.715Z,3.72
2023-01-13T07:51:39.948Z,2.53
2023-01-13T07:54:42.909Z,5.03
2023-01-13T07:57:46.461Z,4.55
2023-01-13T08:00:49.416Z,4.68
2023-01-13T08:03:52.725Z,5.18
2023-01-13T08:06:55.725Z,3.97
2023-01-13T08:09:59.737Z,4.75
2023-01-13T08:13:27.199Z,3.10
2023-01-13T08:16:30.553Z,3.17
2023-01-13T08:19:36.766Z,3.78
2023-01-13T08:22:40.159Z,4.85
2023-01-13T08:25:43.914Z,4.13
2023-01-13T08:28:47.299Z,4.60
2023-01-13T08:31:50.530Z,6.00
2023-01-13T08:34:53.495Z,10.60
2023-01-13T08:37:58.850Z,4.60
2023-01-13T08:41:02.188Z,4.18
2023-01-13T08:44:07.448Z,7.88
2023-01-13T08:47:10.781Z,6.72
2023-01-13T08:50:14.107Z,7.97
2023-01-13T08:53:18.137Z,5.35
2023-01-13T08:56:21.858Z,7.63
2023-01-13T08:59:25.525Z,6.35
2023-01-13T09:02:29.243Z,7.28
2023-01-13T09:05:33.131Z,8.90
2023-01-13T09:08:36.529Z,8.48
2023-01-13T09:12:10.137Z,8.20
2023-01-13T09:15:14.440Z,8.32
2023-01-13T09:18:18.097Z,9.18
2023-01-13T09:21:23.341Z,7.88
2023-01-13T09:24:27.044Z,6.97
2023-01-13T09:27:31.128Z,6.68
2023-01-13T09:30:34.469Z,10.30
2023-01-13T09:33:57.037Z,9.02
2023-01-13T09:37:00.925Z,10.48
2023-01-13T09:40:07.727Z,10.43
2023-01-13T09:43:53.453Z,7.85
2023-01-13T09:50:16.232Z,5.85
2023-01-13T09:53:26.365Z,8.68
2023-01-13T09:56:29.804Z,5.95
2023-01-13T09:59:36.898Z,9.40
2023-01-13T10:06:01.578Z,5.38
2023-01-13T10:09:07.236Z,6.38
2023-01-13T10:12:39.520Z,7.18
2023-01-13T10:16:04.567Z,4.30
2023-01-13T10:19:32.032Z,6.55
2023-01-13T10:22:41.827Z,5.43
2023-01-13T10:25:58.951Z,5.85
2023-01-13T10:29:03.419Z,7.85
2023-01-13T10:32:06.655Z,6.75
2023-01-13T10:35:10.022Z,5.45
2023-01-13T10:38:23.149Z,5.40
2023-01-13T10:41:29.026Z,9.15
2023-01-13T10:44:33.022Z,7.07
2023-01-13T10:47:38.527Z,8.23
2023-01-13T10:50:43.549Z,8.93
2023-01-13T10:54:02.517Z,7.72
2023-01-13T10:57:36.536Z,10.55
2023-01-13T11:00:40.606Z,13.20
2023-01-13T11:03:45.792Z,9.98
2023-01-13T11:06:49.265Z,8.13
2023-01-13T11:10:10.623Z,9.13
2023-01-13T11:13:27.694Z,7.75
2023-01-13T11:16:52.789Z,8.57
2023-01-13T11:20:05.658Z,11.48
2023-01-13T11:23:34.763Z,8.82
2023-01-13T11:26:45.940Z,4.95
2023-01-13T11:30:10.176Z,7.43
2023-01-13T11:33:16.721Z,6.60
2023-01-13T11:36:25.681Z,7.70
2023-01-13T11:39:47.938Z,6.15
2023-01-13T11:42:57.839Z,7.95
2023-01-13T11:46:02.106Z,5.43
2023-01-13T11:49:06.023Z,6.72
2023-01-13T11:52:30.928Z,8.05
2023-01-13T11:55:49.057Z,6.38
2023-01-13T11:59:01.037Z,5.78
2023-01-13T12:02:25.942Z,6.28
2023-01-13T12:05:40.791Z,4.90
2023-01-13T12:09:21.999Z,5.97
2023-01-13T12:12:45.981Z,11.23
2023-01-13T12:16:24.078Z,11.98
2023-01-13T12:19:30.634Z,7.70
2023-01-13T12:22:36.865Z,10.18
2023-01-13T12:25:50.451Z,5.68
2023-01-13T12:29:03.061Z,8.95
2023-01-13T12:32:13.264Z,10.68
2023-01-13T12:35:31.365Z,10.35
2023-01-13T12:38:45.791Z,9.10
2023-01-13T12:42:23.775Z,4.82
2023-01-13T12:45:31.976Z,8.90
2023-01-13T12:48:57.407Z,6.20
2023-01-13T12:52:15.272Z,8.10
2023-01-13T12:55:23.007Z,11.23
2023-01-13T13:01:41.155Z,9.07
2023-01-13T13:04:54.112Z,9.95
2023-01-13T13:08:17.380Z,11.00
2023-01-13T13:11:58.838Z,11.85
2023-01-13T13:15:04.212Z,8.32
2023-01-13T13:18:28.053Z,10.70
2023-01-13T13:22:13.384Z,6.68
2023-01-13T13:25:25.376Z,7.90
2023-01-13T13:28:33.700Z,6.60
2023-01-13T13:32:05.467Z,8.52
2023-01-13T13:35:23.814Z,10.90
2023-01-13T13:39:09.268Z,7.90
2023-01-13T13:42:37.596Z,8.45
2023-01-13T13:46:10.529Z,8.82
2023-01-13T13:49:18.800Z,8.85
2023-01-13T13:52:30.300Z,4.47
2023-01-13T13:55:34.391Z,9.30
2023-01-13T13:58:38.204Z,7.13
2023-01-13T14:01:45.073Z,10.02
2023-01-13T14:04:49.284Z,10.65
2023-01-13T14:08:00.536Z,7.85
2023-01-13T14:11:32.809Z,8.43
2023-01-13T14:14:36.533Z,8.85
2023-01-13T14:17:40.539Z,5.28
2023-01-13T14:20:44.884Z,7.45
2023-01-13T14:24:15.889Z,8.10
2023-01-13T14:27:19.881Z,4.63
2023-01-13T14:30:28.833Z,5.57
2023-01-13T14:33:39.602Z,5.13
2023-01-13T14:36:42.978Z,10.25
2023-01-13T14:39:46.771Z,8.68
2023-01-13T14:43:12.995Z,6.18
2023-01-13T14:46:18.213Z,8.80
2023-01-13T14:49:35.871Z,6.72
2023-01-13T14:52:57.652Z,6.80
2023-01-13T14:56:01.732Z,6.45
2023-01-13T14:59:43.074Z,6.90
2023-01-13T15:02:58.409Z,7.65
2023-01-13T15:06:02.440Z,7.80
2023-01-13T15:09:13.655Z,6.55
2023-01-13T15:12:43.927Z,7.53
2023-01-13T15:15:52.281Z,7.55
2023-01-13T15:18:56.937Z,5.53
2023-01-13T15:22:00.702Z,5.88
2023-01-13T15:25:04.680Z,5.22
2023-01-13T15:28:17.198Z,5.35
2023-01-13T15:31:21.349Z,8.73
2023-01-13T15:34:24.560Z,10.77
2023-01-13T15:37:28.182Z,8.50
2023-01-13T15:40:33.812Z,4.55
2023-01-13T15:43:55.262Z,4.47
2023-01-13T15:47:02.215Z,8.80
2023-01-13T15:53:14.496Z,3.97
2023-01-13T15:56:29.360Z,4.05
2023-01-13T15:59:34.410Z,4.72
2023-01-13T16:02:37.780Z,5.03
2023-01-13T16:05:42.261Z,6.50
2023-01-13T16:08:45.415Z,5.75
2023-01-13T16:11:48.877Z,4.15
2023-01-13T16:14:52.029Z,10.23
2023-01-13T16:17:59.211Z,4.22
2023-01-13T16:21:02.650Z,7.18
2023-01-13T16:24:07.231Z,10.27
2023-01-13T16:27:22.010Z,9.43
2023-01-13T16:30:26.994Z,6.45
2023-01-13T16:33:30.913Z,5.55
2023-01-13T16:36:37.976Z,4.20
2023-01-13T16:39:41.345Z,4.45
2023-01-13T16:42:45.053Z,3.75
2023-01-13T16:45:48.171Z,4.50
2023-01-13T16:48:53.460Z,5.05
2023-01-13T16:51:57.475Z,5.43
2023-01-13T16:55:01.802Z,3.22
2023-01-13T16:58:05.542Z,4.43
2023-01-13T17:01:19.137Z,3.47
2023-01-13T17:04:24.430Z,4.63
2023-01-13T17:07:28.109Z,5.57
2023-01-13T17:10:31.069Z,6.75
2023-01-13T17:13:34.750Z,10.45
2023-01-13T17:16:42.079Z,10.43
2023-01-13T17:19:45.143Z,7.78
2023-01-13T17:22:57.671Z,13.02
2023-01-13T17:26:01.824Z,10.25
2023-01-13T17:29:07.248Z,7.70
2023-01-13T17:32:18.593Z,7.00
2023-01-13T17:35:25.471Z,7.47
2023-01-13T17:41:31.577Z,7.78
2023-01-13T17:44:34.622Z,5.93
2023-01-13T17:47:38.390Z,4.53
2023-01-13T17:50:47.325Z,4.47
2023-01-13T17:53:51.566Z,4.38
2023-01-13T17:56:57.128Z,6.35
2023-01-13T18:00:00.499Z,5.93
2023-01-13T18:03:04.232Z,6.40
2023-01-13T18:06:12.203Z,6.43
2023-01-13T18:09:16.729Z,5.72
2023-01-13T18:12:20.081Z,5.72
2023-01-13T18:15:23.750Z,7.80
2023-01-13T18:18:27.645Z,5.05
2023-01-13T18:21:49.632Z,3.75
2023-01-13T18:25:10.951Z,5.63
2023-01-13T18:28:14.795Z,4.40
2023-01-13T18:31:18.166Z,3.00
2023-01-13T18:34:21.792Z,4.78
2023-01-13T18:37:25.882Z,2.90
2023-01-13T18:40:29.630Z,4.90
2023-01-13T18:43:34.732Z,8.13
2023-01-13T18:46:38.377Z,7.65
2023-01-13T18:49:41.841Z,3.88
2023-01-13T18:52:45.679Z,6.88
2023-01-13T18:55:49.275Z,9.85
2023-01-13T18:58:53.763Z,12.60
2023-01-13T19:01:59.267Z,5.45
2023-01-13T19:05:03.008Z,4.53
2023-01-13T19:08:07.257Z,4.35
2023-01-13T19:11:11.244Z,5.65
2023-01-13T19:14:34.555Z,4.75
2023-01-13T19:17:38.321Z,9.05
2023-01-13T19:20:41.832Z,5.75
2023-01-13T19:23:45.539Z,4.70
2023-01-13T19:26:49.952Z,11.02
2023-01-13T19:29:54.388Z,11.90
2023-01-13T19:32:57.684Z,9.80
2023-01-13T19:36:01.771Z,5.78
2023-01-13T19:39:05.169Z,5.30
2023-01-13T19:42:27.270Z,9.77
2023-01-13T19:45:32.888Z,6.88
2023-01-13T19:48:35.803Z,6.72
2023-01-13T19:51:39.871Z,8.27
2023-01-13T19:54:46.418Z,7.70
2023-01-13T19:57:50.837Z,7.05
2023-01-13T20:00:57.223Z,6.13
2023-01-13T20:04:04.429Z,5.90
2023-01-13T20:07:08.165Z,7.40
2023-01-13T20:10:11.471Z,5.25
2023-01-13T20:13:14.925Z,5.22
2023-01-13T20:16:18.926Z,7.10
2023-01-13T20:19:22.747Z,5.10
2023-01-13T20:22:26.701Z,4.45
2023-01-13T20:25:30.953Z,5.50
2023-01-13T20:28:38.104Z,3.97
2023-01-13T20:34:44.757Z,2.78
2023-01-13T20:37:48.447Z,5.72
2023-01-13T20:41:01.933Z,5.32
2023-01-13T20:44:05.916Z,5.45
2023-01-13T20:47:09.595Z,7.75
2023-01-13T20:50:13.998Z,4.72
2023-01-13T20:53:17.891Z,5.60
2023-01-13T20:56:21.260Z,9.85
2023-01-13T20:59:25.261Z,5.80
2023-01-13T21:02:28.634Z,6.25
2023-01-13T21:05:34.252Z,4.22
2023-01-13T21:08:37.622Z,5.03
2023-01-13T21:11:59.844Z,5.85
2023-01-13T21:15:22.372Z,4.22
2023-01-13T21:18:44.199Z,5.75
2023-01-13T21:21:47.839Z,3.38
2023-01-13T21:24:51.411Z,5.03
2023-01-13T21:27:56.780Z,5.78
2023-01-13T21:31:10.479Z,3.55
2023-01-13T21:34:14.187Z,3.22
2023-01-13T21:37:18.395Z,2.78
2023-01-13T21:40:21.750Z,7.03
2023-01-13T21:43:43.913Z,7.13
2023-01-13T21:47:05.269Z,3.15
2023-01-13T21:50:13.140Z,4.85
2023-01-13T21:53:16.102Z,3.35
2023-01-13T21:56:19.014Z,2.72
2023-01-13T21:59:22.561Z,4.65
2023-01-13T22:02:36.344Z,3.75
2023-01-13T22:05:40.402Z,3.05
2023-01-13T22:08:44.030Z,5.28
2023-01-13T22:11:47.815Z,3.40
2023-01-13T22:14:52.648Z,2.95
2023-01-13T22:17:57.406Z,3.13
2023-01-13T22:21:02.206Z,1.73
2023-01-13T22:24:05.934Z,2.47
2023-01-13T22:27:09.511Z,3.15
2023-01-13T22:30:16.223Z,5.60
2023-01-13T22:33:19.054Z,4.50
2023-01-13T22:36:23.075Z,4.70
2023-01-13T22:39:27.957Z,2.83
2023-01-13T22:42:31.346Z,4.88
2023-01-13T22:45:35.261Z,2.85
2023-01-13T22:48:39.487Z,3.53
2023-01-13T22:51:43.846Z,4.38
2023-01-13T22:54:47.460Z,4.50
2023-01-13T22:57:51.403Z,2.90
2023-01-13T23:00:55.445Z,5.22
2023-01-13T23:03:59.518Z,4.13
2023-01-13T23:07:03.199Z,4.95
2023-01-13T23:10:07.177Z,3.67
2023-01-13T23:13:11.223Z,6.85
2023-01-13T23:16:17.568Z,4.15
2023-01-13T23:19:21.686Z,10.18
2023-01-13T23:22:25.367Z,6.30
2023-01-13T23:25:29.012Z,3.15
2023-01-13T23:28:33.284Z,5.65
2023-01-13T23:31:36.951Z,4.80
2023-01-13T23:34:40.541Z,4.90
2023-01-13T23:37:44.508Z,5.60
2023-01-13T23:40:48.170Z,7.00
2023-01-13T23:43:57.327Z,6.25
2023-01-13T23:47:00.396Z,3.67
2023-01-13T23:50:04.413Z,3.65
2023-01-13T23:53:08.359Z,4.55
2023-01-13T23:56:15.409Z,3.67
2023-01-13T23:59:20.315Z,4.18
